首页
METAR-TAF:

METAR-TAF

机场 :

Gillette, 怀俄明州, 美国

纬度: 44-20-22N, 经度: 105-32-31W, 海拔: 1330米

当前天气观测

该预报发布于30分钟前的21:53 UTC
风速11节,风向,有时为19节阵风
温度 12°C
湿度 26%
气压 1013 hPa
能見度: 16.1公里
少量云层高于8500英尺

METAR: KGCC 292153Z AUTO 18011G19KT 10SM FEW085 12/M07 A2991 RMK AO2 SLP129 T01221072

时间: 16:23 (22:23 UTC)

预报

该预报发布于5小时和3分钟前的17:20 UTC
预报有效从29日的 18点(UTC)到 30日的 18点(UTC)
风速12节,风向
能見度: 10公里
散云层高于12000英尺

TAF: KGCC 291720Z 2918/3018 19012KT P6SM SCT120

超过4000个机场的气象观测和天气预报(METAR&TAF报告)。

可查询的气象台以黄色和红色小点在地图上表示。

将鼠标移到小点上方,可查看气象台名称。

然后点击查看天气观测和预报。

如需切换地图:点击带黑十字的绿色按钮放大地图;点击带横线的绿色按钮缩小地图;或者点击绿色箭头查看邻近地区的地图。


METAR-TAF: